createdAt,value
2022-12-31T00:00:14.641Z,58.00
2022-12-31T00:02:41.460Z,58.26
2022-12-31T00:05:08.913Z,58.30
2022-12-31T00:10:02.694Z,58.25
2022-12-31T00:12:29.421Z,58.35
2022-12-31T00:14:56.119Z,58.59
2022-12-31T00:17:22.815Z,58.62
2022-12-31T00:19:49.560Z,58.61
2022-12-31T00:22:16.299Z,58.61
2022-12-31T00:24:42.903Z,58.58
2022-12-31T00:27:09.456Z,58.78
2022-12-31T00:29:36.118Z,58.73
2022-12-31T00:32:02.792Z,59.00
2022-12-31T00:34:29.565Z,58.91
2022-12-31T00:36:56.300Z,58.87
2022-12-31T00:39:22.955Z,59.10
2022-12-31T00:42:03.559Z,58.95
2022-12-31T00:44:30.303Z,58.87
2022-12-31T00:46:57.048Z,58.80
2022-12-31T00:49:23.831Z,58.76
2022-12-31T00:51:50.703Z,58.74
2022-12-31T00:54:17.540Z,58.96
2022-12-31T00:56:44.732Z,58.93
2022-12-31T00:59:11.285Z,59.28
2022-12-31T01:01:40.163Z,59.07
2022-12-31T01:04:13.623Z,58.98
2022-12-31T01:06:42.436Z,59.13
2022-12-31T01:09:10.592Z,58.95
2022-12-31T01:11:37.673Z,59.09
2022-12-31T01:14:08.044Z,59.31
2022-12-31T01:16:43.264Z,59.30
2022-12-31T01:19:18.524Z,59.31
2022-12-31T01:21:47.124Z,59.52
2022-12-31T01:24:14.369Z,59.19
2022-12-31T01:26:41.587Z,59.45
2022-12-31T01:29:09.651Z,59.22
2022-12-31T01:31:37.356Z,59.12
2022-12-31T01:34:04.686Z,59.31
2022-12-31T01:36:33.553Z,59.21
2022-12-31T01:39:01.940Z,59.37
2022-12-31T01:41:34.792Z,59.41
2022-12-31T01:44:22.836Z,59.34
2022-12-31T01:47:03.111Z,59.26
2022-12-31T01:49:39.816Z,59.26
2022-12-31T01:52:13.291Z,59.07
2022-12-31T01:54:52.264Z,58.99
2022-12-31T01:57:19.729Z,59.33
2022-12-31T01:59:47.595Z,58.94
2022-12-31T02:02:16.090Z,58.96
2022-12-31T02:04:43.024Z,59.13
2022-12-31T02:07:11.322Z,59.24
2022-12-31T02:09:40.546Z,59.13
2022-12-31T02:12:09.466Z,59.38
2022-12-31T02:14:46.565Z,59.51
2022-12-31T02:17:24.906Z,59.46
2022-12-31T02:20:24.795Z,59.51
2022-12-31T02:23:44.165Z,59.31
2022-12-31T02:26:41.513Z,59.28
2022-12-31T02:29:36.192Z,59.28
2022-12-31T02:32:32.593Z,59.61
2022-12-31T02:35:23.382Z,59.36
2022-12-31T02:43:17.064Z,59.31
2022-12-31T02:45:50.324Z,59.28
2022-12-31T02:48:35.544Z,59.39
2022-12-31T02:51:04.766Z,59.25
2022-12-31T02:53:46.031Z,59.66
2022-12-31T02:56:38.135Z,59.65
2022-12-31T02:59:31.579Z,59.72
2022-12-31T03:02:15.856Z,59.65
2022-12-31T03:04:48.675Z,59.43
2022-12-31T03:07:20.792Z,59.65
2022-12-31T03:09:47.491Z,59.30
2022-12-31T03:12:34.028Z,59.25
2022-12-31T03:15:01.078Z,59.51
2022-12-31T03:17:27.693Z,59.12
2022-12-31T03:20:12.755Z,59.43
2022-12-31T03:22:42.638Z,59.80
2022-12-31T03:25:27.697Z,59.68
2022-12-31T03:27:56.030Z,59.24
2022-12-31T03:30:23.485Z,59.49
2022-12-31T03:32:51.408Z,59.35
2022-12-31T03:35:20.723Z,59.54
2022-12-31T03:37:48.554Z,59.54
2022-12-31T03:40:16.332Z,59.53
2022-12-31T03:42:42.975Z,59.45
2022-12-31T03:45:10.832Z,59.76
2022-12-31T03:47:37.637Z,59.64
2022-12-31T03:50:06.088Z,59.80
2022-12-31T03:52:32.769Z,60.12
2022-12-31T03:54:59.416Z,60.04
2022-12-31T03:57:26.127Z,60.03
2022-12-31T03:59:52.867Z,59.72
2022-12-31T04:02:23.268Z,60.10
2022-12-31T04:04:54.776Z,59.93
2022-12-31T04:07:21.475Z,59.93
2022-12-31T04:09:48.286Z,60.22
2022-12-31T04:12:15.223Z,60.27
2022-12-31T04:14:42.011Z,60.02
2022-12-31T04:17:08.973Z,60.02
2022-12-31T04:19:35.610Z,59.99
2022-12-31T04:22:02.271Z,59.80
2022-12-31T04:24:29.256Z,60.01
2022-12-31T04:26:55.928Z,60.01
2022-12-31T04:29:22.841Z,60.10
2022-12-31T04:31:49.770Z,60.12
2022-12-31T04:34:16.947Z,60.14
2022-12-31T04:36:43.630Z,59.94
2022-12-31T04:39:10.302Z,60.16
2022-12-31T04:41:36.995Z,60.32
2022-12-31T04:44:03.861Z,60.33
2022-12-31T04:46:32.825Z,59.99
2022-12-31T04:49:00.421Z,59.90
2022-12-31T04:51:28.625Z,60.05
2022-12-31T04:53:55.455Z,60.03
2022-12-31T04:56:22.804Z,60.08
2022-12-31T04:58:50.143Z,60.16
2022-12-31T05:01:17.236Z,60.04
2022-12-31T05:03:45.204Z,59.90
2022-12-31T05:06:16.988Z,59.90
2022-12-31T05:08:44.298Z,59.86
2022-12-31T05:11:11.514Z,59.77
2022-12-31T05:13:38.657Z,59.91
2022-12-31T05:16:05.983Z,60.44
2022-12-31T05:18:33.227Z,60.34
2022-12-31T05:21:00.616Z,59.84
2022-12-31T05:23:27.999Z,59.63
2022-12-31T05:25:54.694Z,59.95
2022-12-31T05:28:21.801Z,59.93
2022-12-31T05:30:50.207Z,60.18
2022-12-31T05:33:18.095Z,60.10
2022-12-31T05:35:45.330Z,59.87
2022-12-31T05:38:12.559Z,60.09
2022-12-31T05:40:39.385Z,60.33
2022-12-31T05:43:06.522Z,59.75
2022-12-31T05:45:33.181Z,59.90
2022-12-31T05:47:59.938Z,59.92
2022-12-31T05:50:26.599Z,59.74
2022-12-31T05:52:56.525Z,59.91
2022-12-31T05:55:23.766Z,59.79
2022-12-31T05:57:50.423Z,59.74
2022-12-31T06:00:17.590Z,59.76
2022-12-31T06:02:45.342Z,59.75
2022-12-31T06:05:12.320Z,59.74
2022-12-31T06:07:39.137Z,59.78
2022-12-31T06:10:06.546Z,59.74
2022-12-31T06:12:33.257Z,59.72
2022-12-31T06:15:00.250Z,59.70
2022-12-31T06:17:27.021Z,59.62
2022-12-31T06:19:53.686Z,59.73
2022-12-31T06:22:20.279Z,59.33
2022-12-31T06:24:46.954Z,59.58
2022-12-31T06:27:13.913Z,59.78
2022-12-31T06:29:40.653Z,59.63
2022-12-31T06:32:07.463Z,59.87
2022-12-31T06:34:34.127Z,59.34
2022-12-31T06:37:00.899Z,59.71
2022-12-31T06:39:27.909Z,59.37
2022-12-31T06:41:54.896Z,59.72
2022-12-31T06:44:22.734Z,59.72
2022-12-31T06:46:50.647Z,59.46
2022-12-31T06:49:17.571Z,59.58
2022-12-31T06:51:46.181Z,59.46
2022-12-31T06:54:13.773Z,59.45
2022-12-31T06:56:41.074Z,59.57
2022-12-31T06:59:25.120Z,59.48
2022-12-31T07:02:30.934Z,59.38
2022-12-31T07:05:06.578Z,59.51
2022-12-31T07:07:45.200Z,59.52
2022-12-31T07:10:12.002Z,59.25
2022-12-31T07:12:57.168Z,59.53
2022-12-31T07:15:37.239Z,59.41
2022-12-31T07:18:20.300Z,59.50
2022-12-31T07:20:47.249Z,59.61
2022-12-31T07:23:14.260Z,59.20
2022-12-31T07:25:51.222Z,59.56
2022-12-31T07:28:40.592Z,59.43
2022-12-31T07:31:36.565Z,59.12
2022-12-31T07:34:37.411Z,59.74
2022-12-31T07:37:15.245Z,59.41
2022-12-31T07:39:54.278Z,59.46
2022-12-31T07:42:37.220Z,59.50
2022-12-31T07:45:31.668Z,59.91
2022-12-31T07:48:02.495Z,59.66
2022-12-31T07:50:30.221Z,59.37
2022-12-31T07:52:57.212Z,59.11
2022-12-31T07:55:23.934Z,58.84
2022-12-31T07:58:25.700Z,59.07
2022-12-31T08:00:55.450Z,58.86
2022-12-31T08:03:33.975Z,58.78
2022-12-31T08:06:12.636Z,58.65
2022-12-31T08:08:39.218Z,58.32
2022-12-31T08:11:37.968Z,58.28
2022-12-31T08:14:10.158Z,58.23
2022-12-31T08:16:37.418Z,57.89
2022-12-31T08:19:04.861Z,57.72
2022-12-31T08:21:48.405Z,57.96
2022-12-31T08:24:17.516Z,57.75
2022-12-31T08:27:19.618Z,57.60
2022-12-31T08:30:01.459Z,57.47
2022-12-31T08:32:55.305Z,57.35
2022-12-31T08:35:46.547Z,57.21
2022-12-31T08:38:21.775Z,57.40
2022-12-31T08:41:25.984Z,57.23
2022-12-31T08:44:48.362Z,57.44
2022-12-31T08:47:24.197Z,57.29
2022-12-31T08:49:53.325Z,57.17
2022-12-31T08:52:25.165Z,56.97
2022-12-31T08:54:53.171Z,57.15
2022-12-31T08:57:30.636Z,57.00
2022-12-31T09:00:09.948Z,57.22
2022-12-31T09:02:43.214Z,57.10
2022-12-31T09:05:24.844Z,57.11
2022-12-31T09:08:12.739Z,57.00
2022-12-31T09:10:45.059Z,56.77
2022-12-31T09:13:14.580Z,56.79
2022-12-31T09:15:48.703Z,56.99
2022-12-31T09:18:15.607Z,56.72
2022-12-31T09:20:44.252Z,56.76
2022-12-31T09:23:12.956Z,56.90
2022-12-31T09:25:51.847Z,56.65
2022-12-31T09:28:28.477Z,56.96
2022-12-31T09:31:06.134Z,56.64
2022-12-31T09:33:56.200Z,56.67
2022-12-31T09:36:32.162Z,56.49
2022-12-31T09:39:16.854Z,56.71
2022-12-31T09:42:01.444Z,56.60
2022-12-31T09:44:43.166Z,56.19
2022-12-31T09:47:40.516Z,56.20
2022-12-31T09:50:40.976Z,56.19
2022-12-31T09:53:28.965Z,56.02
2022-12-31T09:56:10.929Z,56.05
2022-12-31T09:58:49.958Z,56.39
2022-12-31T10:01:45.449Z,56.23
2022-12-31T10:04:40.465Z,56.10
2022-12-31T10:07:32.460Z,55.77
2022-12-31T10:10:29.644Z,56.30
2022-12-31T10:13:06.809Z,56.15
2022-12-31T10:16:10.483Z,55.85
2022-12-31T10:18:46.116Z,56.12
2022-12-31T10:21:34.038Z,56.10
2022-12-31T10:24:48.772Z,56.14
2022-12-31T10:27:22.519Z,56.17
2022-12-31T10:30:02.269Z,56.00
2022-12-31T10:32:55.248Z,55.53
2022-12-31T10:35:50.674Z,55.86
2022-12-31T10:38:32.098Z,55.91
2022-12-31T10:41:35.655Z,55.73
2022-12-31T10:44:50.245Z,55.63
2022-12-31T10:47:28.910Z,55.73
2022-12-31T10:50:33.193Z,55.44
2022-12-31T10:53:18.234Z,55.93
2022-12-31T10:56:03.025Z,55.69
2022-12-31T10:58:44.663Z,55.65
2022-12-31T11:04:27.457Z,55.61
2022-12-31T11:07:09.351Z,55.53
2022-12-31T11:10:00.754Z,55.38
2022-12-31T11:12:46.125Z,55.37
2022-12-31T11:24:37.967Z,55.43
2022-12-31T11:27:21.090Z,55.27
2022-12-31T11:30:25.284Z,55.51
2022-12-31T11:33:05.503Z,55.45
2022-12-31T11:35:55.477Z,55.11
2022-12-31T11:38:22.112Z,55.12
2022-12-31T11:41:07.832Z,54.84
2022-12-31T11:43:55.734Z,55.20
2022-12-31T11:46:50.889Z,55.22
2022-12-31T11:50:02.115Z,54.89
2022-12-31T11:52:52.088Z,54.69
2022-12-31T11:55:32.947Z,55.18
2022-12-31T11:58:08.273Z,55.05
2022-12-31T12:00:35.200Z,55.29
2022-12-31T12:03:04.807Z,55.07
2022-12-31T12:05:33.491Z,55.22
2022-12-31T12:08:01.010Z,55.27
2022-12-31T12:10:35.555Z,55.06
2022-12-31T12:13:19.676Z,55.02
2022-12-31T12:15:52.566Z,54.90
2022-12-31T12:18:25.462Z,55.18
2022-12-31T12:20:52.920Z,55.28
2022-12-31T12:23:26.375Z,55.13
2022-12-31T12:25:53.404Z,55.31
2022-12-31T12:28:22.075Z,54.84
2022-12-31T12:31:03.472Z,55.02
2022-12-31T12:33:41.711Z,55.12
2022-12-31T12:36:13.821Z,54.94
2022-12-31T12:38:41.133Z,55.00
2022-12-31T12:41:19.070Z,55.06
2022-12-31T12:43:45.817Z,55.45
2022-12-31T12:46:30.728Z,55.22
2022-12-31T12:48:58.792Z,54.83
2022-12-31T12:51:31.426Z,55.27
2022-12-31T12:54:31.843Z,55.38
2022-12-31T12:57:15.246Z,55.13
2022-12-31T12:59:53.755Z,54.73
2022-12-31T13:02:41.366Z,55.03
2022-12-31T13:05:11.069Z,54.82
2022-12-31T13:07:46.589Z,55.15
2022-12-31T13:10:25.441Z,54.90
2022-12-31T13:16:08.087Z,54.98
2022-12-31T13:19:19.694Z,54.87
2022-12-31T13:22:25.094Z,54.97
2022-12-31T13:24:59.325Z,54.75
2022-12-31T13:27:35.585Z,54.73
2022-12-31T13:30:13.041Z,55.06
2022-12-31T13:32:52.754Z,54.89
2022-12-31T13:35:22.460Z,55.18
2022-12-31T13:37:51.446Z,54.74
2022-12-31T13:40:27.537Z,54.91
2022-12-31T13:43:26.232Z,54.99
2022-12-31T13:46:03.224Z,54.87
2022-12-31T13:48:40.837Z,55.06
2022-12-31T13:54:49.541Z,54.89
2022-12-31T13:57:29.130Z,55.13
2022-12-31T14:00:01.764Z,54.66
2022-12-31T14:02:44.608Z,55.01
2022-12-31T14:05:11.295Z,54.68
2022-12-31T14:07:51.583Z,54.89
2022-12-31T14:10:25.433Z,54.93
2022-12-31T14:13:34.808Z,54.64
2022-12-31T14:31:22.066Z,54.71
2022-12-31T14:34:00.669Z,54.61
2022-12-31T14:36:27.596Z,54.77
2022-12-31T14:39:21.983Z,54.76
2022-12-31T14:41:58.063Z,54.78
2022-12-31T14:44:37.961Z,54.73
2022-12-31T14:47:07.575Z,55.07
2022-12-31T14:49:55.572Z,54.80
2022-12-31T14:52:23.915Z,55.11
2022-12-31T14:55:09.136Z,54.59
2022-12-31T14:58:26.039Z,54.80
2022-12-31T15:00:35.344Z,54.65
2022-12-31T15:03:16.307Z,54.66
2022-12-31T15:06:00.126Z,54.86
2022-12-31T15:08:39.935Z,54.96
2022-12-31T15:11:15.623Z,55.01
2022-12-31T15:14:02.378Z,54.92
2022-12-31T15:17:06.267Z,54.98
2022-12-31T15:19:38.657Z,54.99
2022-12-31T15:22:56.332Z,54.92
2022-12-31T15:25:41.185Z,55.01
2022-12-31T15:28:29.789Z,54.54
2022-12-31T15:31:03.160Z,54.88
2022-12-31T15:33:34.725Z,54.81
2022-12-31T15:36:18.096Z,54.56
2022-12-31T15:38:49.683Z,54.80
2022-12-31T15:41:19.280Z,54.74
2022-12-31T15:44:12.341Z,54.63
2022-12-31T15:46:42.641Z,54.39
2022-12-31T15:49:18.337Z,54.61
2022-12-31T15:51:51.409Z,54.84
2022-12-31T15:54:39.717Z,54.58
2022-12-31T15:57:12.584Z,54.37
2022-12-31T15:59:40.800Z,54.22
2022-12-31T16:02:25.859Z,54.53
2022-12-31T16:04:55.017Z,54.71
2022-12-31T16:07:23.904Z,54.69
2022-12-31T16:09:55.111Z,54.49
2022-12-31T16:12:33.130Z,54.63
2022-12-31T16:15:01.741Z,54.33
2022-12-31T16:17:31.146Z,54.35
2022-12-31T16:19:59.457Z,54.51
2022-12-31T16:22:37.077Z,54.69
2022-12-31T16:25:30.256Z,54.91
2022-12-31T16:27:53.998Z,54.50
2022-12-31T16:30:31.365Z,54.75
2022-12-31T16:33:01.878Z,54.41
2022-12-31T16:35:33.565Z,54.60
2022-12-31T16:38:17.883Z,54.32
2022-12-31T16:41:20.893Z,54.56
2022-12-31T16:43:49.453Z,54.56
2022-12-31T16:46:27.018Z,54.48
2022-12-31T16:49:06.462Z,54.36
2022-12-31T16:51:36.086Z,54.37
2022-12-31T16:54:03.531Z,54.51
2022-12-31T16:56:34.451Z,54.31
2022-12-31T16:59:30.425Z,54.19
2022-12-31T17:02:02.512Z,54.22
2022-12-31T17:04:29.380Z,54.41
2022-12-31T17:07:36.443Z,54.30
2022-12-31T17:10:15.986Z,54.29
2022-12-31T17:13:25.392Z,54.17
2022-12-31T17:15:42.623Z,53.86
2022-12-31T17:18:17.982Z,54.10
2022-12-31T17:20:45.057Z,54.33
2022-12-31T17:23:25.373Z,53.93
2022-12-31T17:25:59.084Z,53.78
2022-12-31T17:28:27.740Z,54.01
2022-12-31T17:31:00.786Z,53.74
2022-12-31T17:33:29.832Z,53.91
2022-12-31T17:36:14.831Z,53.92
2022-12-31T17:38:42.049Z,53.56
2022-12-31T17:41:27.711Z,53.63
2022-12-31T17:43:55.732Z,53.64
2022-12-31T17:46:24.019Z,53.52
2022-12-31T17:48:57.157Z,53.64
2022-12-31T17:51:24.606Z,53.78
2022-12-31T17:53:51.668Z,53.70
2022-12-31T17:56:19.734Z,53.45
2022-12-31T17:58:51.064Z,53.56
2022-12-31T18:01:20.734Z,53.62
2022-12-31T18:03:48.486Z,53.61
2022-12-31T18:06:17.085Z,53.39
2022-12-31T18:08:44.143Z,53.81
2022-12-31T18:11:31.360Z,53.88
2022-12-31T18:13:58.064Z,53.46
2022-12-31T18:16:24.856Z,53.68
2022-12-31T18:18:51.626Z,53.47
2022-12-31T18:21:25.841Z,53.86
2022-12-31T18:26:22.176Z,53.77
2022-12-31T18:28:49.798Z,53.61
2022-12-31T18:31:24.945Z,53.60
2022-12-31T18:33:53.861Z,53.50
2022-12-31T18:36:21.639Z,53.42
2022-12-31T18:38:48.986Z,53.42
2022-12-31T18:41:27.016Z,53.40
2022-12-31T18:43:54.440Z,53.58
2022-12-31T18:46:24.993Z,53.52
2022-12-31T18:48:51.771Z,53.57
2022-12-31T18:51:23.966Z,53.44
2022-12-31T18:53:53.324Z,53.23
2022-12-31T18:56:21.501Z,53.28
2022-12-31T18:58:48.564Z,53.76
2022-12-31T19:01:30.897Z,53.35
2022-12-31T19:04:00.300Z,53.58
2022-12-31T19:06:27.935Z,53.51
2022-12-31T19:08:54.792Z,53.32
2022-12-31T19:11:22.675Z,53.24
2022-12-31T19:13:49.745Z,53.26
2022-12-31T19:16:17.940Z,52.98
2022-12-31T19:18:44.959Z,53.46
2022-12-31T19:21:19.275Z,52.97
2022-12-31T19:23:46.913Z,53.07
2022-12-31T19:26:18.340Z,53.42
2022-12-31T19:28:46.629Z,52.81
2022-12-31T19:31:14.046Z,52.98
2022-12-31T19:33:41.171Z,53.07
2022-12-31T19:36:15.258Z,52.96
2022-12-31T19:38:42.308Z,53.04
2022-12-31T19:41:18.768Z,52.76
2022-12-31T19:43:46.941Z,52.96
2022-12-31T19:46:18.228Z,53.22
2022-12-31T19:48:45.858Z,53.04
2022-12-31T19:51:16.685Z,52.82
2022-12-31T19:53:52.323Z,53.13
2022-12-31T19:56:20.415Z,52.75
2022-12-31T19:58:47.460Z,52.86
2022-12-31T20:01:22.819Z,53.18
2022-12-31T20:03:50.247Z,53.19
2022-12-31T20:06:18.667Z,53.06
2022-12-31T20:08:46.593Z,52.81
2022-12-31T20:11:21.548Z,52.84
2022-12-31T20:13:49.920Z,53.25
2022-12-31T20:16:19.074Z,53.11
2022-12-31T20:18:46.562Z,53.01
2022-12-31T20:21:17.854Z,52.83
2022-12-31T20:23:45.406Z,52.84
2022-12-31T20:26:12.558Z,53.06
2022-12-31T20:28:39.287Z,53.11
2022-12-31T20:31:25.365Z,53.13
2022-12-31T20:33:54.156Z,52.74
2022-12-31T20:36:21.262Z,52.97
2022-12-31T20:38:48.533Z,53.01
2022-12-31T20:41:20.781Z,53.01
2022-12-31T20:43:48.464Z,53.04
2022-12-31T20:46:21.245Z,52.82
2022-12-31T20:48:49.518Z,52.86
2022-12-31T20:51:17.832Z,52.76
2022-12-31T20:53:56.180Z,53.00
2022-12-31T20:56:24.133Z,52.98
2022-12-31T20:58:50.888Z,52.73
2022-12-31T21:01:18.404Z,52.84
2022-12-31T21:04:04.907Z,52.86
2022-12-31T21:06:33.777Z,52.79
2022-12-31T21:09:01.912Z,52.50
2022-12-31T21:11:47.660Z,52.98
2022-12-31T21:14:14.517Z,52.90
2022-12-31T21:16:41.216Z,52.88
2022-12-31T21:19:08.195Z,52.73
2022-12-31T21:21:35.090Z,52.86
2022-12-31T21:24:02.434Z,52.70
2022-12-31T21:26:48.099Z,52.62
2022-12-31T21:29:14.966Z,52.46
2022-12-31T21:31:41.583Z,52.66
2022-12-31T21:34:09.920Z,52.64
2022-12-31T21:36:36.658Z,52.63
2022-12-31T21:39:03.808Z,52.69
2022-12-31T21:41:49.249Z,52.83
2022-12-31T21:44:15.854Z,52.47
2022-12-31T21:47:00.858Z,52.76
2022-12-31T21:49:29.135Z,52.95
2022-12-31T21:52:14.397Z,52.50
2022-12-31T21:54:59.507Z,52.95
2022-12-31T21:57:26.249Z,52.88
2022-12-31T22:00:40.515Z,52.86
2022-12-31T22:03:17.426Z,52.57
2022-12-31T22:05:49.711Z,52.40
2022-12-31T22:08:16.779Z,52.61
2022-12-31T22:10:51.946Z,52.66
2022-12-31T22:13:19.486Z,52.68
2022-12-31T22:15:47.822Z,52.54
2022-12-31T22:18:16.361Z,52.25
2022-12-31T22:20:43.372Z,52.33
2022-12-31T22:23:10.335Z,52.24
2022-12-31T22:25:39.137Z,52.33
2022-12-31T22:30:54.375Z,52.24
2022-12-31T22:33:21.235Z,52.17
2022-12-31T22:36:05.575Z,52.25
2022-12-31T22:38:33.249Z,52.22
2022-12-31T22:41:07.036Z,52.27
2022-12-31T22:43:35.765Z,52.21
2022-12-31T22:46:09.845Z,51.92
2022-12-31T22:48:37.599Z,52.12
2022-12-31T22:51:04.617Z,52.18
2022-12-31T22:53:31.493Z,52.18
2022-12-31T22:55:58.373Z,52.21
2022-12-31T22:58:25.834Z,52.18
2022-12-31T23:00:53.491Z,52.30
2022-12-31T23:03:20.299Z,52.00
2022-12-31T23:05:51.901Z,52.31
2022-12-31T23:08:23.424Z,52.10
2022-12-31T23:11:11.592Z,52.08
2022-12-31T23:13:59.814Z,52.19
2022-12-31T23:16:47.551Z,52.20
2022-12-31T23:19:34.272Z,51.90
2022-12-31T23:22:19.966Z,51.96
2022-12-31T23:24:46.781Z,52.13
2022-12-31T23:27:13.627Z,51.73
2022-12-31T23:29:46.785Z,52.08
2022-12-31T23:32:18.142Z,52.09
2022-12-31T23:34:46.659Z,51.91
2022-12-31T23:37:14.606Z,51.92
2022-12-31T23:39:42.028Z,51.75
2022-12-31T23:42:09.037Z,52.14
2022-12-31T23:44:35.656Z,51.83
2022-12-31T23:47:02.360Z,52.04
2022-12-31T23:49:29.219Z,51.88
2022-12-31T23:51:55.885Z,52.19
2022-12-31T23:54:22.550Z,52.19
2022-12-31T23:56:49.220Z,52.75
2022-12-31T23:59:16.207Z,53.01
